Time;durP1;ratioP1;P1;durP2;ratioP2;P2;SDS_P1;SDS_P2;PMS_P1;PMS_P2;Temp;Humidity;BMP_temperature;BMP_pressure;BME280_temperature;BME280_humidity;BME280_pressure;Samples;Min_cycle;Max_cycle;Signal;HPM_P1;HPM_P2
2022/09/11 00:00:03;;;;;;;7.05;1.13;;;;;;;9.71;100.00;93268.66;2113515;28;20397;-82
2022/09/11 00:01:06;;;;;;;5.60;0.93;;;;;;;9.71;100.00;93265.97;2101101;28;20069;-79
2022/09/11 00:02:07;;;;;;;2.45;0.80;;;;;;;9.73;100.00;93262.91;2105614;28;20110;-80
2022/09/11 00:03:08;;;;;;;3.65;1.00;;;;;;;9.74;100.00;93262.47;2108482;28;20030;-80
2022/09/11 00:04:09;;;;;;;0.93;0.65;;;;;;;9.79;100.00;93261.28;2113457;28;20106;-80
2022/09/11 00:05:10;;;;;;;4.25;0.98;;;;;;;9.81;100.00;93254.38;2113456;27;20030;-80
2022/09/11 00:06:15;;;;;;;1.42;0.70;;;;;;;9.82;100.00;93257.78;2122005;27;20055;-80
2022/09/11 00:07:15;;;;;;;3.63;1.33;;;;;;;9.77;100.00;93258.25;2113401;28;20074;-80
2022/09/11 00:08:18;;;;;;;3.45;0.80;;;;;;;9.82;100.00;93247.84;2104337;28;20050;-83
2022/09/11 00:09:19;;;;;;;2.08;0.90;;;;;;;9.83;100.00;93249.38;2122358;27;20027;-80
2022/09/11 00:10:21;;;;;;;4.10;1.05;;;;;;;9.86;100.00;93247.06;2122059;27;20160;-80
2022/09/11 00:11:22;;;;;;;3.08;0.80;;;;;;;9.90;100.00;93251.16;2113765;28;20023;-81
2022/09/11 00:12:25;;;;;;;3.70;1.10;;;;;;;9.83;100.00;93260.06;2122541;27;20325;-80
2022/09/11 00:13:27;;;;;;;2.92;0.68;;;;;;;9.79;100.00;93246.03;2123206;27;20015;-80
2022/09/11 00:14:29;;;;;;;1.88;0.70;;;;;;;9.79;100.00;93253.28;2122948;27;20072;-80
2022/09/11 00:15:30;;;;;;;1.17;0.80;;;;;;;9.83;100.00;93249.38;2123474;27;20060;-80
2022/09/11 00:16:37;;;;;;;1.75;0.70;;;;;;;9.84;100.00;93248.22;2131658;27;20404;-80
2022/09/11 00:17:38;;;;;;;3.53;0.85;;;;;;;9.87;100.00;93246.63;2123724;27;20118;-80
2022/09/11 00:18:41;;;;;;;1.10;0.60;;;;;;;9.94;100.00;93254.53;2131763;27;20640;-80
2022/09/11 00:19:42;;;;;;;4.85;0.80;;;;;;;9.96;100.00;93251.44;2131148;27;20171;-80
2022/09/11 00:20:54;;;;;;;5.35;0.95;;;;;;;9.99;100.00;93254.06;2130992;27;20034;-79
2022/09/11 00:21:56;;;;;;;3.35;1.00;;;;;;;9.98;100.00;93249.88;2122041;27;20030;-79
2022/09/11 00:22:57;;;;;;;2.13;0.80;;;;;;;9.98;100.00;93262.50;2104927;28;20069;-79
2022/09/11 00:23:58;;;;;;;2.72;0.88;;;;;;;9.91;100.00;93255.34;2096519;28;20443;-80
2022/09/11 00:24:59;;;;;;;1.42;0.80;;;;;;;9.95;100.00;93257.97;2100797;28;20150;-80
2022/09/11 00:26:01;;;;;;;3.75;0.93;;;;;;;10.05;100.00;93257.78;2096464;28;20078;-81
2022/09/11 00:27:02;;;;;;;10.52;1.05;;;;;;;10.05;100.00;93257.78;2105384;28;20047;-80
2022/09/11 00:28:03;;;;;;;3.15;0.65;;;;;;;10.09;100.00;93263.78;2100791;28;20465;-80
2022/09/11 00:29:04;;;;;;;1.10;1.00;;;;;;;10.18;100.00;93259.84;2107152;28;20131;-79
2022/09/11 00:30:06;;;;;;;3.15;1.02;;;;;;;10.14;100.00;93259.94;2121454;27;20034;-79
2022/09/11 00:31:11;;;;;;;1.65;0.90;;;;;;;10.17;100.00;93261.75;2131537;27;20038;-79
2022/09/11 00:32:14;;;;;;;1.30;0.88;;;;;;;10.20;100.00;93254.84;2123038;27;20515;-79
2022/09/11 00:33:15;;;;;;;4.10;0.80;;;;;;;10.23;100.00;93259.38;2115614;27;20130;-78
2022/09/11 00:34:16;;;;;;;1.67;0.90;;;;;;;10.30;100.00;93253.94;2114319;27;20031;-78
2022/09/11 00:35:17;;;;;;;3.05;0.90;;;;;;;10.27;100.00;93249.41;2113296;28;20024;-79
2022/09/11 00:36:21;;;;;;;3.25;1.00;;;;;;;10.23;100.00;93254.03;2121727;27;20076;-78
2022/09/11 00:37:22;;;;;;;2.53;0.90;;;;;;;10.15;100.00;93248.06;2121633;27;20023;-78
2022/09/11 00:38:24;;;;;;;3.40;1.08;;;;;;;10.12;100.00;93248.13;2121678;27;20030;-77
2022/09/11 00:39:25;;;;;;;4.50;1.20;;;;;;;10.13;100.00;93247.72;2113382;27;20030;-78
2022/09/11 00:40:26;;;;;;;3.17;1.13;;;;;;;10.19;100.00;93251.44;2107896;28;20544;-78
2022/09/11 00:41:34;;;;;;;0.95;0.85;;;;;;;10.14;100.00;93251.13;2113238;28;20038;-77
2022/09/11 00:42:35;;;;;;;2.85;0.90;;;;;;;10.21;100.00;93251.75;2109582;27;20034;-77
2022/09/11 00:44:02;;;;;;;4.38;1.00;;;;;;;10.30;100.00;93252.00;2112977;28;20051;-78
2022/09/11 00:45:06;;;;;;;3.60;1.00;;;;;;;10.21;100.00;93248.34;2108429;28;20028;-77
2022/09/11 00:46:07;;;;;;;2.78;1.00;;;;;;;10.18;100.00;93246.47;2105253;28;20024;-77
2022/09/11 00:47:11;;;;;;;4.07;0.80;;;;;;;10.31;100.00;93244.75;2113229;28;20165;-78
2022/09/11 00:48:16;;;;;;;2.30;1.00;;;;;;;10.31;100.00;93250.84;2122244;27;20511;-78
2022/09/11 00:49:35;;;;;;;2.65;0.93;;;;;;;10.21;100.00;93251.75;2131143;27;20034;-77
2022/09/11 00:50:36;;;;;;;4.88;1.05;;;;;;;10.24;100.00;93252.88;2116000;27;20058;-77
2022/09/11 00:51:39;;;;;;;3.08;1.10;;;;;;;10.28;100.00;93248.25;2104672;28;20031;-78
2022/09/11 00:52:52;;;;;;;2.25;1.13;;;;;;;10.33;100.00;93250.44;2114106;27;20377;-77
2022/09/11 00:53:56;;;;;;;4.93;1.48;;;;;;;10.37;100.00;93256.47;2121545;27;20042;-77
2022/09/11 00:55:09;;;;;;;4.22;0.85;;;;;;;10.36;100.00;93259.53;2121237;27;20114;-78
2022/09/11 00:56:10;;;;;;;5.85;1.20;;;;;;;10.45;100.00;93257.84;2109411;28;20035;-78
2022/09/11 00:57:12;;;;;;;1.40;0.65;;;;;;;10.46;100.00;93248.66;2113070;28;20032;-77
2022/09/11 00:58:18;;;;;;;1.92;0.70;;;;;;;10.49;100.00;93250.53;2121198;27;20034;-77
2022/09/11 00:59:25;;;;;;;2.90;0.75;;;;;;;10.47;100.00;93247.50;2122411;27;20833;-77
2022/09/11 01:00:27;;;;;;;1.65;1.23;;;;;;;10.60;100.00;93255.66;2121376;27;20039;-77
2022/09/11 01:01:29;;;;;;;2.33;0.80;;;;;;;10.50;100.00;93257.38;2110314;28;20057;-77
2022/09/11 01:02:34;;;;;;;1.35;0.90;;;;;;;10.47;100.00;93252.84;2104839;28;20492;-77
2022/09/11 01:03:35;;;;;;;2.45;0.90;;;;;;;10.58;100.00;93245.38;2105974;27;20036;-77
2022/09/11 01:04:36;;;;;;;1.90;0.90;;;;;;;10.57;100.00;93251.88;2130608;27;20071;-77
2022/09/11 01:05:40;;;;;;;3.85;1.10;;;;;;;10.58;100.00;93250.72;2121468;27;20031;-77
2022/09/11 01:06:41;;;;;;;3.50;0.93;;;;;;;10.54;100.00;93252.72;2121472;27;20062;-77
2022/09/11 01:07:44;;;;;;;2.83;1.10;;;;;;;10.64;100.00;93245.66;2130707;27;20084;-77
2022/09/11 01:08:45;;;;;;;3.95;1.10;;;;;;;10.68;100.00;93242.91;2121387;27;20051;-76
2022/09/11 01:09:47;;;;;;;5.25;1.35;;;;;;;10.71;100.00;93247.41;2121912;27;20035;-78
2022/09/11 01:11:06;;;;;;;4.10;0.95;;;;;;;10.71;100.00;93240.16;2130494;27;20031;-78
2022/09/11 01:12:18;;;;;;;4.70;1.10;;;;;;;10.70;100.00;93244.00;2129969;27;20023;-79
2022/09/11 01:13:58;;;;;;;2.17;1.00;;;;;;;10.78;100.00;93239.25;2121317;27;20038;-78
2022/09/11 01:15:04;;;;;;;2.97;1.08;;;;;;;10.76;100.00;93241.59;2091315;28;20474;-77
2022/09/11 01:16:18;;;;;;;3.13;1.00;;;;;;;10.74;100.00;93238.56;2115864;27;20532;-77
2022/09/11 01:17:42;;;;;;;2.10;0.80;;;;;;;10.82;100.00;93239.94;2121475;27;20023;-78
2022/09/11 01:19:00;;;;;;;3.20;1.10;;;;;;;10.76;100.00;93239.69;2119000;27;20106;-78
2022/09/11 01:20:48;;;;;;;1.20;0.90;;;;;;;10.84;100.00;93233.03;2122585;27;20129;-78
2022/09/11 01:22:14;;;;;;;2.65;1.08;;;;;;;10.89;100.00;93242.47;2107095;27;20036;-78
2022/09/11 01:23:48;;;;;;;3.67;1.10;;;;;;;10.96;100.00;93244.97;2119087;27;20089;-77
2022/09/11 01:25:19;;;;;;;2.60;0.88;;;;;;;11.05;100.00;93237.13;2116180;27;20030;-79
2022/09/11 01:26:37;;;;;;;2.85;1.10;;;;;;;10.99;100.00;93240.75;2120390;27;20063;-81
2022/09/11 01:27:56;;;;;;;2.13;1.00;;;;;;;11.17;100.00;93249.13;2120743;27;20042;-78
2022/09/11 01:29:16;;;;;;;2.08;1.00;;;;;;;11.24;100.00;93238.28;2122200;27;20027;-79
2022/09/11 01:30:18;;;;;;;3.08;0.90;;;;;;;11.26;100.00;93246.63;2110400;28;20381;-79
2022/09/11 01:31:23;;;;;;;2.75;0.90;;;;;;;11.18;100.00;93244.53;2112902;28;20020;-78
2022/09/11 01:33:20;;;;;;;2.42;0.90;;;;;;;11.13;100.00;93253.06;2111751;28;20389;-79
2022/09/11 01:34:41;;;;;;;2.13;1.13;;;;;;;11.25;100.00;93249.72;2092827;28;20020;-79
2022/09/11 01:35:50;;;;;;;3.10;0.70;;;;;;;11.32;100.00;93244.94;2086995;28;20037;-78
2022/09/11 01:36:59;;;;;;;6.50;1.08;;;;;;;11.26;100.00;93241.28;2092507;28;20028;-77
2022/09/11 01:38:07;;;;;;;2.25;0.85;;;;;;;11.30;100.00;93251.91;2094718;28;20024;-78
2022/09/11 01:39:09;;;;;;;2.30;1.00;;;;;;;11.21;100.00;93238.34;2095310;28;20037;-78
2022/09/11 01:40:27;;;;;;;5.13;1.00;;;;;;;11.21;100.00;93246.38;2120351;27;20477;-77
2022/09/11 01:41:31;;;;;;;3.20;0.85;;;;;;;11.15;100.00;93251.47;2122008;27;20457;-77
2022/09/11 01:42:34;;;;;;;4.28;0.90;;;;;;;11.39;100.00;93241.38;2110701;28;20413;-78
2022/09/11 01:43:42;;;;;;;1.73;0.70;;;;;;;11.46;100.00;93245.81;2109084;28;20115;-80
2022/09/11 01:44:56;;;;;;;3.97;1.00;;;;;;;11.49;100.00;93244.97;2121872;27;20464;-81
2022/09/11 01:46:00;;;;;;;2.50;0.93;;;;;;;11.57;100.00;93252.41;2122796;27;20574;-78
2022/09/11 01:47:04;;;;;;;2.30;1.00;;;;;;;11.65;100.00;93244.22;2121706;27;20038;-79
2022/09/11 01:48:07;;;;;;;1.95;0.93;;;;;;;11.57;100.00;93247.06;2117086;27;20054;-78
2022/09/11 01:49:34;;;;;;;1.13;0.70;;;;;;;11.58;100.00;93245.88;2121718;27;20033;-78
2022/09/11 01:50:40;;;;;;;6.75;0.90;;;;;;;11.56;100.00;93244.81;2122165;27;20058;-78
2022/09/11 01:51:41;;;;;;;5.28;1.58;;;;;;;11.52;100.00;93247.56;2121684;27;20033;-79
2022/09/11 01:52:49;;;;;;;1.60;0.88;;;;;;;11.43;100.00;93250.06;2113063;27;20070;-78
2022/09/11 01:53:51;;;;;;;1.95;0.85;;;;;;;11.49;100.00;93240.38;2111433;27;20392;-79
2022/09/11 01:55:02;;;;;;;1.40;0.95;;;;;;;11.47;100.00;93248.06;2112760;28;20038;-78
2022/09/11 01:56:12;;;;;;;3.15;0.90;;;;;;;11.38;100.00;93244.47;2113990;27;20135;-78
2022/09/11 01:57:26;;;;;;;4.28;1.10;;;;;;;11.37;100.00;93242.94;2111125;27;20031;-78
2022/09/11 01:58:29;;;;;;;1.90;0.80;;;;;;;11.58;100.00;93248.56;2120719;27;20079;-79
2022/09/11 01:59:40;;;;;;;2.95;0.95;;;;;;;11.52;100.00;93246.81;2121132;27;20023;-78
2022/09/11 02:00:46;;;;;;;3.45;1.20;;;;;;;11.47;100.00;93240.06;2109032;28;20114;-78
2022/09/11 02:01:51;;;;;;;2.55;1.00;;;;;;;11.42;100.00;93248.59;2105588;27;20633;-78
2022/09/11 02:03:00;;;;;;;2.17;0.98;;;;;;;11.56;100.00;93250.16;2112733;28;20063;-78
2022/09/11 02:04:09;;;;;;;1.25;0.70;;;;;;;11.43;100.00;93242.06;2114016;27;20643;-78
2022/09/11 02:05:22;;;;;;;1.95;0.70;;;;;;;11.43;100.00;93250.06;2117645;27;20027;-78
2022/09/11 02:06:31;;;;;;;2.10;0.93;;;;;;;11.37;100.00;93248.31;2120948;27;20114;-78
2022/09/11 02:07:44;;;;;;;1.05;0.80;;;;;;;11.35;100.00;93243.38;2120822;27;20615;-78
2022/09/11 02:08:49;;;;;;;2.13;0.73;;;;;;;11.35;100.00;93246.06;2118569;27;20031;-78
2022/09/11 02:09:57;;;;;;;6.07;1.00;;;;;;;11.31;100.00;93243.44;2111524;28;20019;-77
2022/09/11 02:11:07;;;;;;;1.67;0.80;;;;;;;11.31;100.00;93248.81;2113285;28;20047;-81
2022/09/11 02:12:12;;;;;;;3.58;0.75;;;;;;;11.28;100.00;93240.84;2117247;28;20046;-77
2022/09/11 02:15:30;;;;;;;;;;;;;;;11.29;100.00;93245.06;2138497;27;20560;-76
2022/09/11 02:16:43;;;;;;;1.77;0.90;;;;;;;11.31;100.00;93246.13;2128627;27;20260;-78
2022/09/11 02:17:58;;;;;;;5.30;1.00;;;;;;;11.29;100.00;93243.13;2127546;27;20031;-78
2022/09/11 02:19:03;;;;;;;2.63;1.00;;;;;;;11.31;100.00;93248.81;2137817;27;20038;-78
2022/09/11 02:20:05;;;;;;;2.58;0.90;;;;;;;11.31;100.00;93248.06;2123371;27;20146;-78
2022/09/11 02:21:06;;;;;;;2.13;1.15;;;;;;;11.29;100.00;93234.34;2128335;27;20035;-78
2022/09/11 02:22:08;;;;;;;3.97;0.88;;;;;;;11.28;100.00;93235.50;2137647;27;20356;-78
2022/09/11 02:23:10;;;;;;;5.45;0.90;;;;;;;11.30;100.00;93249.22;2128378;27;20115;-77
2022/09/11 02:24:11;;;;;;;2.53;0.95;;;;;;;11.31;100.00;93248.06;2128587;27;20645;-78
2022/09/11 02:25:12;;;;;;;4.80;1.02;;;;;;;11.29;100.00;93243.13;2137018;27;20030;-79
2022/09/11 02:26:17;;;;;;;4.78;1.00;;;;;;;11.37;100.00;93240.28;2137748;27;20026;-78
2022/09/11 02:27:22;;;;;;;2.65;0.90;;;;;;;11.32;100.00;93244.94;2137723;27;20026;-78
2022/09/11 02:28:24;;;;;;;3.63;0.90;;;;;;;11.37;100.00;93248.31;2137420;27;21321;-78
2022/09/11 02:29:25;;;;;;;5.03;1.10;;;;;;;11.33;100.00;93237.69;2137767;27;20030;-78
2022/09/11 02:30:26;;;;;;;1.10;0.80;;;;;;;11.35;100.00;93240.69;2127807;27;20413;-78
2022/09/11 02:31:27;;;;;;;2.58;1.00;;;;;;;11.33;100.00;93237.69;2128427;27;20026;-79
2022/09/11 02:32:31;;;;;;;1.88;1.00;;;;;;;11.29;100.00;93234.34;2137459;27;20018;-79
2022/09/11 02:33:35;;;;;;;2.75;0.90;;;;;;;11.42;100.00;93237.88;2137795;27;20045;-77
2022/09/11 02:34:38;;;;;;;2.05;0.80;;;;;;;11.43;100.00;93234.03;2133384;27;20034;-77
2022/09/11 02:35:49;;;;;;;3.03;0.80;;;;;;;11.47;100.00;93236.63;2136773;27;20166;-79
2022/09/11 02:37:08;;;;;;;2.13;0.95;;;;;;;11.37;100.00;93235.69;2137630;27;20030;-80
2022/09/11 02:38:31;;;;;;;2.78;0.98;;;;;;;11.35;100.00;93230.00;2124937;27;20118;-80
2022/09/11 02:39:56;;;;;;;1.85;0.80;;;;;;;11.27;100.00;93232.06;2131806;27;20042;-80
2022/09/11 02:41:03;;;;;;;2.63;0.90;;;;;;;11.24;100.00;93229.50;2118729;27;20477;-80
2022/09/11 02:42:47;;;;;;;2.83;1.33;;;;;;;11.17;100.00;93224.31;2115151;27;20036;-80
2022/09/11 02:44:02;;;;;;;0.73;0.70;;;;;;;11.16;100.00;93228.91;2084455;28;20051;-80
2022/09/11 02:45:17;;;;;;;1.92;1.00;;;;;;;11.19;100.00;93238.75;2083580;28;20041;-80
2022/09/11 02:46:43;;;;;;;2.30;0.80;;;;;;;11.33;100.00;93248.41;2114699;27;20070;-80
2022/09/11 02:48:04;;;;;;;1.13;0.80;;;;;;;11.29;100.00;93255.75;2129215;27;20156;-80
2022/09/11 02:49:23;;;;;;;4.38;1.30;;;;;;;11.34;100.00;93250.66;2124088;27;20037;-80
2022/09/11 02:51:02;;;;;;;2.88;0.90;;;;;;;11.41;100.00;93252.41;2130882;27;20034;-80
2022/09/11 02:52:18;;;;;;;3.97;0.88;;;;;;;11.38;100.00;93258.59;2106260;28;20043;-81
2022/09/11 02:53:46;;;;;;;1.90;0.90;;;;;;;11.31;100.00;93258.75;2134524;27;20107;-80
2022/09/11 02:55:06;;;;;;;4.38;1.00;;;;;;;11.27;100.00;93255.41;2117203;28;20111;-80
2022/09/11 02:56:25;;;;;;;3.40;1.10;;;;;;;11.19;100.00;93262.06;2121137;27;20053;-80
2022/09/11 02:57:33;;;;;;;2.08;1.00;;;;;;;11.17;100.00;93253.72;2126957;27;20022;-80
2022/09/11 02:58:49;;;;;;;2.05;0.90;;;;;;;11.12;100.00;93251.56;2116238;27;20619;-79
2022/09/11 03:00:00;;;;;;;3.20;1.08;;;;;;;11.08;100.00;93249.69;2121570;27;20027;-78
2022/09/11 03:01:02;;;;;;;3.90;1.17;;;;;;;11.06;100.00;93245.91;2120562;27;20076;-79
2022/09/11 03:02:08;;;;;;;1.60;0.80;;;;;;;11.07;100.00;93252.78;2127484;27;20030;-79
2022/09/11 03:03:09;;;;;;;5.72;1.23;;;;;;;11.05;100.00;93247.84;2133713;27;20022;-79
2022/09/11 03:04:10;;;;;;;3.75;1.35;;;;;;;11.01;100.00;93246.41;2127888;27;20480;-78
2022/09/11 03:05:10;;;;;;;1.23;0.80;;;;;;;10.98;100.00;93248.00;2128125;27;20023;-80
2022/09/11 03:06:21;;;;;;;6.20;1.10;;;;;;;10.97;100.00;93248.41;2127966;27;20046;-78
2022/09/11 03:07:24;;;;;;;3.75;1.00;;;;;;;10.92;100.00;93248.91;2129115;27;20088;-78
2022/09/11 03:08:25;;;;;;;6.20;1.10;;;;;;;10.90;100.00;93245.91;2127991;27;20030;-80
2022/09/11 03:09:25;;;;;;;2.55;0.90;;;;;;;10.84;100.00;93243.72;2128001;27;20058;-79
2022/09/11 03:10:26;;;;;;;2.78;0.90;;;;;;;10.77;100.00;93233.16;2127803;27;20030;-80
2022/09/11 03:11:27;;;;;;;1.75;1.17;;;;;;;10.77;100.00;93246.53;2128131;27;20467;-79
2022/09/11 03:12:28;;;;;;;1.65;0.82;;;;;;;10.74;100.00;93244.66;2118930;27;20060;-79
2022/09/11 03:13:30;;;;;;;5.63;0.90;;;;;;;10.75;100.00;93242.75;2119713;27;20019;-79
2022/09/11 03:14:30;;;;;;;4.07;1.23;;;;;;;10.68;100.00;93240.22;2118971;28;20097;-80
2022/09/11 03:15:32;;;;;;;1.80;0.80;;;;;;;10.65;100.00;93236.47;2111014;28;20032;-78
2022/09/11 03:16:35;;;;;;;3.35;0.73;;;;;;;10.57;100.00;93240.44;2127719;27;20387;-79
2022/09/11 03:17:36;;;;;;;3.33;0.77;;;;;;;10.59;100.00;93235.44;2124046;27;20035;-79
2022/09/11 03:18:37;;;;;;;2.42;1.30;;;;;;;10.53;100.00;93231.72;2128086;27;20484;-78
2022/09/11 03:19:38;;;;;;;2.85;1.00;;;;;;;10.53;100.00;93235.16;2110892;28;20216;-79
2022/09/11 03:20:43;;;;;;;2.90;0.98;;;;;;;10.47;100.00;93234.13;2119655;27;20035;-80
2022/09/11 03:21:44;;;;;;;3.00;0.98;;;;;;;10.49;100.00;93231.03;2127792;27;20047;-79
2022/09/11 03:22:45;;;;;;;1.85;0.82;;;;;;;10.49;100.00;93234.50;2127306;27;20077;-79
2022/09/11 03:23:46;;;;;;;2.03;0.80;;;;;;;10.48;100.00;93226.88;2127880;27;20038;-79
2022/09/11 03:24:47;;;;;;;2.88;0.70;;;;;;;10.48;100.00;93227.63;2128510;27;20031;-79
2022/09/11 03:25:48;;;;;;;1.90;1.05;;;;;;;10.46;100.00;93224.63;2128410;27;20457;-80
2022/09/11 03:26:49;;;;;;;2.35;1.05;;;;;;;10.47;100.00;93225.38;2122557;27;20027;-78
2022/09/11 03:27:50;;;;;;;2.30;0.82;;;;;;;10.50;100.00;93224.56;2119935;27;20496;-79
2022/09/11 03:28:52;;;;;;;1.38;0.90;;;;;;;10.49;100.00;93225.69;2119292;27;20382;-79
2022/09/11 03:29:54;;;;;;;3.60;1.02;;;;;;;10.52;100.00;93235.56;2122902;27;20381;-79
2022/09/11 03:30:56;;;;;;;3.10;0.95;;;;;;;10.54;100.00;93230.59;2121839;27;20057;-79
2022/09/11 03:31:59;;;;;;;3.15;0.90;;;;;;;10.58;100.00;93225.91;2113983;27;20118;-79
2022/09/11 03:33:00;;;;;;;3.50;1.13;;;;;;;10.62;100.00;93226.56;2121559;27;20023;-79
2022/09/11 03:34:01;;;;;;;3.60;1.25;;;;;;;10.64;100.00;93223.50;2122694;27;20022;-78
2022/09/11 03:35:02;;;;;;;3.85;0.80;;;;;;;10.65;100.00;93225.75;2113322;28;20035;-78
2022/09/11 03:36:03;;;;;;;2.60;0.90;;;;;;;10.63;100.00;93217.41;2096726;28;20032;-78
2022/09/11 03:37:05;;;;;;;2.47;1.02;;;;;;;10.66;100.00;93224.59;2101277;27;20024;-79
2022/09/11 03:38:06;;;;;;;3.80;0.98;;;;;;;10.70;100.00;93221.84;2121637;27;20065;-79
2022/09/11 03:39:07;;;;;;;4.40;1.20;;;;;;;10.66;100.00;93218.50;2122128;27;20027;-78
2022/09/11 03:40:08;;;;;;;2.15;0.90;;;;;;;10.70;100.00;93211.91;2113667;28;20043;-77
2022/09/11 03:41:09;;;;;;;3.78;1.10;;;;;;;10.73;100.00;93211.09;2113585;28;20381;-78
2022/09/11 03:42:11;;;;;;;3.53;1.00;;;;;;;10.72;100.00;93214.19;2122107;27;20023;-81
2022/09/11 03:43:12;;;;;;;4.32;1.00;;;;;;;10.72;100.00;93216.84;2115121;27;20524;-80
2022/09/11 03:44:13;;;;;;;5.30;1.10;;;;;;;10.71;100.00;93220.69;2114564;27;20019;-80
2022/09/11 03:45:14;;;;;;;2.85;1.05;;;;;;;10.76;100.00;93214.88;2113837;28;20032;-79
2022/09/11 03:46:16;;;;;;;3.35;1.27;;;;;;;10.77;100.00;93219.03;2113636;27;21013;-81
2022/09/11 03:47:19;;;;;;;2.30;1.02;;;;;;;10.81;100.00;93219.72;2122088;27;20410;-80
2022/09/11 03:48:20;;;;;;;4.38;1.40;;;;;;;10.78;100.00;93218.63;2121806;27;20138;-81
2022/09/11 03:49:21;;;;;;;2.65;1.10;;;;;;;10.83;100.00;93220.78;2121765;27;20034;-80
2022/09/11 03:50:22;;;;;;;3.10;1.10;;;;;;;10.77;100.00;93214.44;2121831;27;20030;-78
2022/09/11 03:51:23;;;;;;;2.33;1.00;;;;;;;10.80;100.00;93218.97;2121914;27;20027;-79
2022/09/11 03:52:24;;;;;;;4.18;1.17;;;;;;;10.82;100.00;93215.88;2122007;27;20031;-79
2022/09/11 03:53:26;;;;;;;2.30;1.10;;;;;;;10.95;100.00;93219.41;2121970;27;20019;-79
2022/09/11 03:54:27;;;;;;;4.53;1.35;;;;;;;10.94;100.00;93219.84;2117685;27;20037;-78
2022/09/11 03:55:28;;;;;;;1.25;1.15;;;;;;;10.91;100.00;93217.97;2122629;27;20445;-79
2022/09/11 03:56:29;;;;;;;4.07;1.10;;;;;;;10.85;100.00;93217.72;2122471;27;20065;-79
2022/09/11 03:57:33;;;;;;;1.85;1.05;;;;;;;10.87;100.00;93225.31;2121741;27;20044;-79
2022/09/11 03:58:34;;;;;;;3.38;1.30;;;;;;;10.86;100.00;93219.22;2118031;27;20465;-79
2022/09/11 03:59:35;;;;;;;1.30;0.90;;;;;;;10.95;100.00;93224.75;2113025;28;20500;-79
2022/09/11 04:00:42;;;;;;;1.50;0.88;;;;;;;10.91;100.00;93223.34;2104904;28;20043;-79
2022/09/11 04:01:43;;;;;;;3.45;1.10;;;;;;;10.90;100.00;93229.84;2114107;27;20042;-78
2022/09/11 04:02:44;;;;;;;6.55;1.05;;;;;;;10.86;100.00;93232.59;2113579;28;20023;-80
2022/09/11 04:03:45;;;;;;;4.97;1.08;;;;;;;10.82;100.00;93226.56;2115295;27;20023;-79
2022/09/11 04:04:46;;;;;;;1.38;0.85;;;;;;;10.85;100.00;93236.44;2120670;27;20035;-80
2022/09/11 04:05:59;;;;;;;2.28;1.23;;;;;;;10.84;100.00;93227.69;2113352;28;20034;-80
2022/09/11 04:07:00;;;;;;;2.42;1.33;;;;;;;10.86;100.00;93237.19;2097957;28;20052;-79
2022/09/11 04:08:02;;;;;;;2.90;0.85;;;;;;;10.91;100.00;93232.09;2104894;28;20031;-79
2022/09/11 04:09:03;;;;;;;2.35;1.00;;;;;;;11.02;100.00;93238.00;2125988;27;20035;-79
2022/09/11 04:10:05;;;;;;;4.70;1.25;;;;;;;11.05;100.00;93231.03;2118021;27;20023;-79
2022/09/11 04:11:10;;;;;;;2.33;1.10;;;;;;;10.97;100.00;93230.44;2113613;28;20042;-79
2022/09/11 04:12:13;;;;;;;2.38;0.90;;;;;;;10.97;100.00;93235.03;2121646;27;20069;-79
2022/09/11 04:13:15;;;;;;;3.80;1.00;;;;;;;10.94;100.00;93227.84;2121736;27;20058;-79
2022/09/11 04:14:16;;;;;;;2.20;0.90;;;;;;;10.99;100.00;93233.47;2113835;27;20364;-80
2022/09/11 04:15:17;;;;;;;1.73;0.95;;;;;;;11.05;100.00;93233.72;2119100;27;20047;-79
2022/09/11 04:16:18;;;;;;;1.83;1.00;;;;;;;11.24;100.00;93237.53;2122633;27;20023;-79
2022/09/11 04:17:19;;;;;;;3.47;1.13;;;;;;;11.25;100.00;93233.69;2122549;27;20038;-79
2022/09/11 04:18:20;;;;;;;1.70;1.08;;;;;;;11.23;100.00;93236.75;2122556;27;20353;-78
2022/09/11 04:19:22;;;;;;;2.22;0.98;;;;;;;11.27;100.00;93242.03;2122589;27;20027;-79
2022/09/11 04:20:23;;;;;;;2.25;1.10;;;;;;;11.48;100.00;93246.16;2121711;27;20027;-79
2022/09/11 04:21:24;;;;;;;1.50;0.77;;;;;;;11.52;100.00;93239.53;2122603;27;20035;-79
2022/09/11 04:22:26;;;;;;;2.63;1.05;;;;;;;11.38;100.00;93239.13;2122372;27;20027;-79
2022/09/11 04:23:28;;;;;;;3.75;0.90;;;;;;;11.62;100.00;93232.44;2121729;27;20023;-79
2022/09/11 04:24:29;;;;;;;2.17;1.08;;;;;;;11.64;100.00;93235.44;2104827;28;20484;-79
2022/09/11 04:25:30;;;;;;;3.78;1.10;;;;;;;11.65;100.00;93234.28;2104237;28;20027;-79
2022/09/11 04:26:32;;;;;;;1.92;1.10;;;;;;;11.68;100.00;93238.06;2122052;27;20441;-79
2022/09/11 04:27:33;;;;;;;3.13;1.35;;;;;;;11.78;100.00;93237.78;2121464;27;20023;-80
2022/09/11 04:28:35;;;;;;;4.10;1.42;;;;;;;11.78;100.00;93247.75;2104991;28;20067;-82
2022/09/11 04:29:36;;;;;;;2.05;0.90;;;;;;;11.65;100.00;93242.31;2105086;28;20028;-82
2022/09/11 04:30:37;;;;;;;1.80;1.00;;;;;;;11.77;100.00;93246.25;2112793;28;20125;-80
2022/09/11 04:31:40;;;;;;;1.50;1.10;;;;;;;11.79;100.00;93241.97;2113908;28;20105;-80
2022/09/11 04:32:40;;;;;;;2.78;1.00;;;;;;;11.92;100.00;93246.66;2118687;27;20031;-81
2022/09/11 04:33:42;;;;;;;1.80;1.00;;;;;;;11.92;100.00;93244.00;2113518;28;20047;-80
2022/09/11 04:34:44;;;;;;;1.17;0.82;;;;;;;11.83;100.00;93244.59;2113609;28;20048;-80
2022/09/11 04:35:44;;;;;;;4.70;1.15;;;;;;;11.68;100.00;93240.72;2113115;28;20031;-80
2022/09/11 04:36:45;;;;;;;2.40;0.98;;;;;;;11.66;100.00;93243.81;2110807;28;20461;-80
2022/09/11 04:37:47;;;;;;;2.20;1.27;;;;;;;11.64;100.00;93243.47;2123447;27;20115;-81
2022/09/11 04:38:52;;;;;;;2.45;1.02;;;;;;;11.58;100.00;93245.88;2122363;27;20034;-79
2022/09/11 04:39:53;;;;;;;4.75;1.20;;;;;;;11.53;100.00;93249.06;2122020;27;20035;-79
2022/09/11 04:40:54;;;;;;;4.10;1.10;;;;;;;11.58;100.00;93251.25;2120380;27;20027;-79
2022/09/11 04:41:56;;;;;;;1.83;1.05;;;;;;;11.69;100.00;93250.25;2122298;27;20035;-79
2022/09/11 04:42:57;;;;;;;1.42;0.98;;;;;;;11.87;100.00;93245.25;2121475;27;20057;-80
2022/09/11 04:43:59;;;;;;;1.63;1.10;;;;;;;11.72;100.00;93250.19;2122002;27;20023;-82
2022/09/11 04:45:00;;;;;;;1.20;1.10;;;;;;;11.62;100.00;93250.41;2122650;27;20027;-82
2022/09/11 04:46:03;;;;;;;2.10;1.10;;;;;;;11.59;100.00;93249.34;2122182;27;20084;-80
2022/09/11 04:47:04;;;;;;;3.45;1.10;;;;;;;11.54;100.00;93249.81;2113333;28;20115;-78
2022/09/11 04:48:05;;;;;;;1.50;1.05;;;;;;;11.47;100.00;93245.41;2121413;27;20167;-79
2022/09/11 04:49:08;;;;;;;2.55;1.08;;;;;;;11.46;100.00;93248.50;2121476;27;20027;-79
2022/09/11 04:50:09;;;;;;;2.47;1.15;;;;;;;11.45;100.00;93253.06;2107308;28;20054;-78
2022/09/11 04:51:23;;;;;;;3.25;1.02;;;;;;;11.42;100.00;93251.25;2106820;28;20036;-77
2022/09/11 04:52:24;;;;;;;2.92;1.17;;;;;;;11.46;100.00;93253.84;2107269;28;20035;-78
2022/09/11 04:53:25;;;;;;;3.13;1.38;;;;;;;11.53;100.00;93259.78;2113410;28;20031;-78
2022/09/11 04:54:26;;;;;;;3.55;1.30;;;;;;;11.55;100.00;93254.78;2113043;28;20437;-79
2022/09/11 04:55:26;;;;;;;2.70;1.00;;;;;;;11.54;100.00;93255.94;2119842;27;20392;-79
2022/09/11 04:56:31;;;;;;;3.20;1.23;;;;;;;11.55;100.00;93251.34;2104025;28;20031;-78
2022/09/11 04:57:32;;;;;;;4.65;1.63;;;;;;;11.50;100.00;93260.63;2113434;28;20902;-81
2022/09/11 04:58:34;;;;;;;4.65;1.27;;;;;;;11.55;100.00;93254.78;2122458;27;20027;-78
2022/09/11 04:59:35;;;;;;;2.08;1.02;;;;;;;11.52;100.00;93258.28;2114516;28;20038;-78
2022/09/11 05:00:37;;;;;;;2.80;1.00;;;;;;;11.54;100.00;93255.94;2110825;27;20031;-78
2022/09/11 05:01:38;;;;;;;3.90;1.58;;;;;;;11.70;100.00;93262.47;2122068;27;20171;-78
2022/09/11 05:02:39;;;;;;;1.63;1.00;;;;;;;11.80;100.00;93264.88;2122134;27;20029;-79
2022/09/11 05:03:42;;;;;;;1.65;1.17;;;;;;;11.75;100.00;93261.97;2120837;27;20031;-78
2022/09/11 05:04:43;;;;;;;1.90;1.20;;;;;;;11.67;100.00;93261.38;2120366;27;20031;-79
2022/09/11 05:05:44;;;;;;;1.42;1.15;;;;;;;11.59;100.00;93271.50;2121106;27;20028;-79
2022/09/11 05:06:47;;;;;;;0.95;0.82;;;;;;;11.54;100.00;93263.22;2121338;27;20046;-78
2022/09/11 05:07:49;;;;;;;2.53;1.05;;;;;;;11.64;100.00;93272.19;2121434;27;20063;-78